Time;durP1;ratioP1;P1;durP2;ratioP2;P2;SDS_P1;SDS_P2;PMS_P1;PMS_P2;Temp;Humidity;BMP_temperature;BMP_pressure;BME280_temperature;BME280_humidity;BME280_pressure;Samples;Min_cycle;Max_cycle;Signal;HPM_P1;HPM_P2
2023/09/12 00:00:37;;;;;;;9.93;5.43;;;20.00;99.90;;;;;;5000399;28;20241;-82
2023/09/12 00:03:03;;;;;;;10.20;4.83;;;20.00;99.90;;;;;;5001326;28;20177;-82
2023/09/12 00:05:28;;;;;;;9.90;4.77;;;20.00;99.90;;;;;;5000648;28;20173;-82
2023/09/12 00:07:54;;;;;;;9.53;4.93;;;19.90;99.90;;;;;;5000576;28;20184;-81
2023/09/12 00:10:19;;;;;;;7.47;4.00;;;20.00;99.90;;;;;;5001064;28;20180;-82
2023/09/12 00:12:45;;;;;;;9.50;4.70;;;20.00;99.90;;;;;;5000842;28;20228;-82
2023/09/12 00:15:11;;;;;;;8.00;6.07;;;19.90;99.90;;;;;;5002149;28;20271;-81
2023/09/12 00:17:36;;;;;;;10.13;7.13;;;19.80;99.90;;;;;;5003043;28;20240;-82
2023/09/12 00:20:04;;;;;;;12.93;7.43;;;19.90;99.90;;;;;;5006130;28;20181;-82
2023/09/12 00:22:29;;;;;;;10.90;7.90;;;19.80;99.90;;;;;;5004222;28;20181;-82
2023/09/12 00:24:55;;;;;;;20.17;11.77;;;19.70;99.90;;;;;;4999460;28;20184;-82
2023/09/12 00:27:20;;;;;;;21.50;13.77;;;19.90;99.90;;;;;;4999232;28;20186;-81
2023/09/12 00:29:46;;;;;;;17.57;11.43;;;19.90;99.90;;;;;;4999536;28;20542;-81
2023/09/12 00:32:11;;;;;;;18.10;9.27;;;20.00;99.90;;;;;;5000261;28;20291;-82
2023/09/12 00:34:37;;;;;;;11.10;8.13;;;20.10;99.90;;;;;;5000136;28;20188;-82
2023/09/12 00:37:02;;;;;;;10.10;7.60;;;20.00;99.90;;;;;;5001040;28;20198;-83
2023/09/12 00:39:28;;;;;;;21.13;13.07;;;20.00;99.90;;;;;;4998958;28;20776;-82
2023/09/12 00:41:54;;;;;;;25.23;14.40;;;19.90;99.90;;;;;;4999750;28;20200;-81
2023/09/12 00:44:19;;;;;;;15.03;10.93;;;20.00;99.90;;;;;;4999127;28;20209;-84
2023/09/12 00:46:46;;;;;;;17.17;11.47;;;19.80;99.90;;;;;;5000599;28;20174;-82
2023/09/12 00:49:13;;;;;;;17.07;13.00;;;19.90;99.90;;;;;;5000229;28;20170;-82
2023/09/12 00:51:39;;;;;;;20.03;12.07;;;20.10;99.90;;;;;;5000209;28;20189;-82
2023/09/12 00:54:04;;;;;;;17.37;11.40;;;20.00;99.90;;;;;;5000695;28;20229;-83
2023/09/12 00:56:30;;;;;;;18.50;12.90;;;20.00;99.90;;;;;;4999448;28;20669;-83
2023/09/12 00:58:57;;;;;;;16.33;11.63;;;20.10;99.90;;;;;;4999242;28;20174;-82
2023/09/12 01:01:23;;;;;;;15.90;12.63;;;20.00;99.90;;;;;;4998938;28;20699;-82
2023/09/12 01:03:49;;;;;;;15.80;11.40;;;20.10;99.90;;;;;;4996638;28;20170;-82
2023/09/12 01:06:17;;;;;;;14.17;10.50;;;20.10;99.90;;;;;;4997832;28;20532;-82
2023/09/12 01:08:42;;;;;;;20.23;12.60;;;20.00;99.90;;;;;;4998086;28;20641;-82
2023/09/12 01:11:08;;;;;;;19.00;10.70;;;20.10;99.90;;;;;;4997845;28;20260;-82
2023/09/12 01:17:24;;;;;;;17.10;12.47;;;20.10;99.90;;;;;;4999572;28;20256;-82
2023/09/12 01:19:50;;;;;;;15.23;10.70;;;20.10;99.90;;;;;;4999929;28;20185;-82
2023/09/12 01:22:55;;;;;;;15.43;9.93;;;20.10;99.90;;;;;;4998397;28;20197;-82
2023/09/12 01:26:00;;;;;;;14.63;9.50;;;20.10;99.90;;;;;;5000149;28;20682;-82
2023/09/12 01:28:34;;;;;;;14.30;10.07;;;20.10;99.90;;;;;;4998579;28;20204;-82
2023/09/12 01:31:02;;;;;;;15.30;11.40;;;20.00;99.90;;;;;;4999855;28;20217;-82
2023/09/12 01:33:28;;;;;;;20.30;13.80;;;20.00;99.90;;;;;;4997351;28;20216;-83
2023/09/12 01:35:54;;;;;;;15.53;11.37;;;20.10;99.90;;;;;;4976839;28;20584;-82
2023/09/12 01:38:21;;;;;;;15.03;11.43;;;20.10;99.90;;;;;;4978669;28;20269;-82
2023/09/12 01:40:51;;;;;;;19.00;14.50;;;20.10;99.90;;;;;;4979432;28;20202;-82
2023/09/12 01:43:19;;;;;;;18.20;12.90;;;20.30;99.90;;;;;;4979549;28;20174;-82
2023/09/12 01:45:54;;;;;;;14.50;10.40;;;20.10;99.90;;;;;;4978764;28;20196;-82
2023/09/12 01:48:23;;;;;;;17.73;10.73;;;20.10;99.90;;;;;;4980113;28;20684;-82
2023/09/12 01:50:49;;;;;;;13.77;10.17;;;20.10;99.90;;;;;;4979789;28;20198;-83
2023/09/12 01:53:15;;;;;;;13.13;8.97;;;20.30;99.90;;;;;;4977989;28;20272;-82
2023/09/12 01:55:45;;;;;;;16.40;9.53;;;20.10;99.90;;;;;;4978235;28;20182;-82
2023/09/12 01:58:14;;;;;;;13.77;9.53;;;20.10;99.90;;;;;;4980385;28;20225;-82
2023/09/12 02:00:40;;;;;;;15.67;9.53;;;20.10;99.90;;;;;;4980011;28;20221;-82
2023/09/12 02:03:05;;;;;;;13.27;9.67;;;20.00;99.90;;;;;;4978739;28;20595;-83
2023/09/12 02:05:31;;;;;;;16.23;10.40;;;20.10;99.90;;;;;;4978909;28;20193;-82
2023/09/12 02:08:00;;;;;;;13.10;9.83;;;20.00;99.90;;;;;;4980268;28;20170;-82
2023/09/12 02:10:25;;;;;;;14.00;9.97;;;20.10;99.90;;;;;;4978497;28;20185;-83
2023/09/12 02:12:51;;;;;;;13.30;9.20;;;20.10;99.90;;;;;;4980675;28;20178;-83
2023/09/12 02:15:16;;;;;;;11.37;9.27;;;20.00;99.90;;;;;;4981257;28;20170;-82
2023/09/12 02:17:42;;;;;;;16.77;9.97;;;20.00;99.90;;;;;;4983481;28;20696;-82
2023/09/12 02:20:09;;;;;;;15.10;10.13;;;20.00;99.90;;;;;;4983750;28;20233;-82
2023/09/12 02:22:35;;;;;;;16.37;12.37;;;20.00;99.90;;;;;;4984847;28;20226;-82
2023/09/12 02:25:00;;;;;;;15.77;11.73;;;19.80;99.90;;;;;;4985864;28;20208;-82
2023/09/12 02:27:26;;;;;;;19.47;11.13;;;20.00;99.90;;;;;;4988810;28;20179;-82
2023/09/12 02:29:52;;;;;;;17.23;12.27;;;20.00;99.90;;;;;;4982287;28;20554;-82
2023/09/12 02:32:17;;;;;;;18.43;12.77;;;20.00;99.90;;;;;;4981050;28;20697;-82
2023/09/12 02:34:43;;;;;;;16.83;12.17;;;19.80;99.90;;;;;;4983081;28;20171;-82
2023/09/12 02:37:08;;;;;;;13.33;11.53;;;20.00;99.90;;;;;;4983209;28;20202;-82
2023/09/12 02:39:34;;;;;;;16.17;12.07;;;20.00;99.90;;;;;;4982037;28;20262;-82
2023/09/12 02:41:59;;;;;;;12.17;10.87;;;20.00;99.90;;;;;;4981692;28;20716;-82
2023/09/12 02:44:25;;;;;;;19.03;12.00;;;20.00;99.90;;;;;;4981657;28;20676;-82
2023/09/12 02:46:51;;;;;;;13.20;10.70;;;20.00;99.90;;;;;;4982087;28;20178;-82
2023/09/12 02:49:16;;;;;;;13.87;10.87;;;20.00;99.90;;;;;;4982089;28;20205;-82
2023/09/12 02:51:42;;;;;;;15.73;9.87;;;19.90;99.90;;;;;;4983650;28;20563;-82
2023/09/12 02:54:08;;;;;;;11.43;8.03;;;19.90;99.90;;;;;;4983249;28;20181;-83
2023/09/12 02:56:33;;;;;;;20.37;10.43;;;20.10;99.90;;;;;;4980908;28;20209;-83
2023/09/12 02:58:59;;;;;;;17.93;12.50;;;20.00;99.90;;;;;;4980025;28;20170;-82
2023/09/12 03:01:27;;;;;;;20.77;14.77;;;20.00;99.90;;;;;;4981958;28;20194;-82
2023/09/12 03:03:53;;;;;;;18.90;14.20;;;19.90;99.90;;;;;;4982349;28;20258;-82
2023/09/12 03:06:19;;;;;;;21.03;15.93;;;19.80;99.90;;;;;;4982337;28;20174;-82
2023/09/12 03:08:44;;;;;;;18.07;13.03;;;19.80;99.90;;;;;;4981896;28;20254;-82
2023/09/12 03:11:10;;;;;;;20.87;15.03;;;19.90;99.90;;;;;;4980804;28;20240;-82
2023/09/12 03:13:42;;;;;;;21.73;16.40;;;19.70;99.90;;;;;;4982734;28;20189;-83
2023/09/12 03:16:12;;;;;;;20.67;16.43;;;19.80;99.90;;;;;;4982769;28;20210;-82
2023/09/12 03:18:37;;;;;;;20.70;15.57;;;19.70;99.90;;;;;;4981068;28;20182;-82
2023/09/12 03:21:03;;;;;;;23.33;16.60;;;19.80;99.90;;;;;;4981304;28;20229;-82
2023/09/12 03:23:28;;;;;;;16.87;15.03;;;19.80;99.90;;;;;;4981581;28;20182;-83
2023/09/12 03:25:54;;;;;;;17.57;14.37;;;19.80;99.90;;;;;;4980886;28;20245;-83
2023/09/12 03:28:19;;;;;;;18.00;14.20;;;19.90;99.90;;;;;;4980667;28;20210;-82
2023/09/12 03:30:45;;;;;;;20.17;14.37;;;19.90;99.90;;;;;;4979239;28;20213;-82
2023/09/12 03:33:10;;;;;;;19.37;14.73;;;19.80;99.90;;;;;;4981155;28;20198;-82
2023/09/12 03:35:36;;;;;;;21.60;15.40;;;19.70;99.90;;;;;;4980964;28;20189;-83
2023/09/12 03:38:02;;;;;;;17.63;13.97;;;19.60;99.90;;;;;;4980517;28;20565;-82
2023/09/12 03:40:31;;;;;;;17.80;13.70;;;19.70;99.90;;;;;;4980195;28;20650;-82
2023/09/12 03:42:57;;;;;;;15.83;12.67;;;19.80;99.90;;;;;;4981091;28;20657;-82
2023/09/12 03:45:23;;;;;;;15.17;11.67;;;19.50;99.90;;;;;;4981302;28;20174;-82
2023/09/12 03:47:49;;;;;;;17.30;12.60;;;19.60;99.90;;;;;;4980866;28;20273;-82
2023/09/12 03:50:14;;;;;;;18.37;12.83;;;19.60;99.90;;;;;;4980743;28;20220;-82
2023/09/12 03:52:40;;;;;;;16.97;14.77;;;19.60;99.90;;;;;;4981449;28;20233;-82
2023/09/12 03:55:06;;;;;;;23.93;16.03;;;19.50;99.90;;;;;;4980535;28;20194;-82
2023/09/12 03:57:31;;;;;;;21.20;16.10;;;19.60;99.90;;;;;;4979977;28;20263;-82
2023/09/12 03:59:57;;;;;;;19.40;15.43;;;19.50;99.90;;;;;;4980589;28;20174;-83
2023/09/12 04:02:23;;;;;;;22.90;17.23;;;19.50;99.90;;;;;;4980191;28;20262;-83
2023/09/12 04:04:48;;;;;;;25.37;21.63;;;19.30;99.90;;;;;;4980780;28;20670;-82
2023/09/12 04:07:14;;;;;;;26.67;21.17;;;19.40;99.90;;;;;;4981102;28;20178;-82
2023/09/12 04:09:39;;;;;;;24.87;20.77;;;19.50;99.90;;;;;;4980187;28;20186;-82
2023/09/12 04:12:06;;;;;;;27.90;22.57;;;19.40;99.90;;;;;;4980413;28;20297;-83
2023/09/12 04:14:32;;;;;;;30.20;23.40;;;19.40;99.90;;;;;;4981222;28;20195;-82
2023/09/12 04:16:58;;;;;;;29.90;24.17;;;19.40;99.90;;;;;;4980839;28;20199;-83
2023/09/12 04:19:24;;;;;;;36.70;25.60;;;19.50;99.90;;;;;;4981281;28;20174;-82
2023/09/12 04:21:50;;;;;;;29.40;24.47;;;19.30;99.90;;;;;;4980113;28;20202;-82
2023/09/12 04:24:17;;;;;;;31.57;24.00;;;19.20;99.90;;;;;;4980054;28;20242;-82
2023/09/12 04:26:43;;;;;;;32.83;24.97;;;19.30;99.90;;;;;;4980145;28;20190;-82
2023/09/12 04:29:09;;;;;;;33.60;23.90;;;19.40;99.90;;;;;;4980503;28;20174;-82
2023/09/12 04:31:35;;;;;;;28.97;22.67;;;19.30;99.90;;;;;;4982154;28;20209;-83
2023/09/12 04:34:00;;;;;;;29.30;24.17;;;19.50;99.90;;;;;;4981227;28;20300;-83
2023/09/12 04:36:26;;;;;;;30.00;24.13;;;19.40;99.90;;;;;;4978195;28;20206;-82
2023/09/12 04:38:51;;;;;;;31.50;24.67;;;19.20;99.90;;;;;;4976946;28;20182;-82
2023/09/12 04:41:17;;;;;;;30.40;23.83;;;19.30;99.90;;;;;;4979062;28;20249;-83
2023/09/12 04:43:46;;;;;;;31.77;23.53;;;19.30;99.90;;;;;;4978861;28;20178;-82
2023/09/12 04:46:15;;;;;;;31.87;22.87;;;19.30;99.90;;;;;;4980124;28;20220;-82
2023/09/12 04:48:40;;;;;;;27.83;22.97;;;19.30;99.90;;;;;;4978387;28;20185;-82
2023/09/12 04:51:06;;;;;;;32.27;24.23;;;19.30;99.90;;;;;;4978279;28;20202;-84
2023/09/12 04:53:34;;;;;;;31.23;23.33;;;19.30;99.90;;;;;;4980378;28;20711;-83
2023/09/12 04:56:03;;;;;;;28.87;22.80;;;19.30;99.90;;;;;;4979917;28;20198;-82
2023/09/12 04:58:29;;;;;;;30.13;22.90;;;19.30;99.90;;;;;;4979479;28;20262;-82
2023/09/12 05:00:55;;;;;;;29.53;22.87;;;19.30;99.90;;;;;;4976934;28;20229;-82
2023/09/12 05:03:22;;;;;;;34.17;22.07;;;19.50;99.90;;;;;;4978918;28;20181;-83
2023/09/12 05:05:48;;;;;;;27.87;21.57;;;19.30;99.90;;;;;;4977031;28;20174;-82
2023/09/12 05:08:13;;;;;;;29.60;21.57;;;19.20;99.90;;;;;;4979434;28;20177;-83
2023/09/12 05:10:39;;;;;;;27.97;21.27;;;19.30;99.90;;;;;;4978495;28;20179;-84
2023/09/12 05:13:05;;;;;;;27.33;19.90;;;19.40;99.90;;;;;;4977914;28;20208;-84
2023/09/12 05:15:30;;;;;;;24.57;21.33;;;19.50;99.90;;;;;;4978364;28;20174;-84
2023/09/12 05:17:56;;;;;;;25.03;20.33;;;19.40;99.90;;;;;;4978759;28;20262;-83
2023/09/12 05:20:22;;;;;;;26.67;20.93;;;19.40;99.90;;;;;;4980068;28;20189;-84
2023/09/12 05:22:47;;;;;;;24.03;18.87;;;19.40;99.90;;;;;;4979571;28;20214;-83
2023/09/12 05:25:13;;;;;;;23.73;19.63;;;19.40;99.90;;;;;;4979539;28;20181;-85
2023/09/12 05:27:38;;;;;;;22.17;19.10;;;19.40;99.90;;;;;;4979654;28;20261;-84
2023/09/12 05:30:05;;;;;;;23.77;17.40;;;19.50;99.90;;;;;;4979634;28;20621;-84
2023/09/12 05:32:31;;;;;;;25.00;18.90;;;19.40;99.90;;;;;;4980653;28;20287;-85
2023/09/12 05:34:56;;;;;;;22.73;18.07;;;19.40;99.90;;;;;;4979143;28;20178;-84
2023/09/12 05:37:22;;;;;;;22.00;18.13;;;19.40;99.90;;;;;;4978603;28;20691;-85
2023/09/12 05:39:47;;;;;;;25.30;20.30;;;19.40;99.90;;;;;;4980441;28;20174;-84
2023/09/12 05:42:14;;;;;;;27.30;20.80;;;19.50;99.90;;;;;;4979835;28;20190;-84
2023/09/12 05:44:42;;;;;;;26.80;21.70;;;19.60;99.90;;;;;;4978796;28;20174;-85
2023/09/12 05:47:08;;;;;;;25.07;20.23;;;19.60;99.90;;;;;;4979371;28;20193;-84
2023/09/12 05:49:34;;;;;;;29.87;22.57;;;19.50;99.90;;;;;;4978994;28;20174;-85
2023/09/12 05:51:59;;;;;;;28.00;20.30;;;19.60;99.90;;;;;;4979946;28;20242;-85
2023/09/12 05:54:25;;;;;;;30.73;22.73;;;19.60;99.90;;;;;;4978623;28;20174;-85
2023/09/12 05:56:52;;;;;;;26.93;23.53;;;19.60;99.90;;;;;;4978742;28;20206;-85
2023/09/12 05:59:18;;;;;;;33.07;26.80;;;19.80;99.90;;;;;;4976049;28;20201;-85
2023/09/12 06:01:43;;;;;;;33.80;26.33;;;19.80;99.90;;;;;;4975592;28;20195;-85
2023/09/12 06:04:09;;;;;;;27.80;23.87;;;20.00;99.90;;;;;;4975975;28;20637;-85
2023/09/12 06:06:35;;;;;;;32.47;25.13;;;19.70;99.90;;;;;;4974154;28;20182;-84
2023/09/12 06:09:00;;;;;;;36.90;26.30;;;19.90;99.90;;;;;;4974087;28;20216;-85
2023/09/12 06:11:26;;;;;;;34.87;26.20;;;19.70;99.90;;;;;;4974290;28;20577;-85
2023/09/12 06:13:52;;;;;;;31.87;23.73;;;19.70;99.90;;;;;;4973262;28;20182;-85
2023/09/12 06:16:17;;;;;;;24.57;16.77;;;19.70;99.90;;;;;;4973711;28;20209;-86
2023/09/12 06:18:43;;;;;;;36.77;14.67;;;19.50;99.90;;;;;;4975125;28;20661;-86
2023/09/12 06:21:08;;;;;;;48.73;17.33;;;19.50;99.90;;;;;;4974126;28;20194;-85
2023/09/12 06:23:34;;;;;;;42.87;12.33;;;19.40;99.90;;;;;;4974084;28;20555;-85
2023/09/12 06:26:00;;;;;;;11.10;6.97;;;19.30;99.90;;;;;;4973089;28;20200;-85
2023/09/12 06:28:31;;;;;;;12.80;7.20;;;19.40;99.90;;;;;;4972257;28;20178;-86
2023/09/12 06:30:57;;;;;;;21.23;9.20;;;19.20;99.90;;;;;;4973339;28;20269;-87
2023/09/12 06:33:24;;;;;;;15.70;6.30;;;19.10;99.90;;;;;;4973637;28;20198;-86
2023/09/12 06:35:52;;;;;;;8.77;4.80;;;19.30;99.90;;;;;;4972576;28;20186;-86
2023/09/12 06:38:18;;;;;;;12.43;5.03;;;19.00;99.90;;;;;;4973806;28;20181;-86
2023/09/12 06:40:44;;;;;;;9.17;4.60;;;19.00;99.90;;;;;;4973510;28;20545;-86
2023/09/12 06:43:10;;;;;;;8.20;3.97;;;18.90;99.90;;;;;;4972274;28;20185;-86
2023/09/12 06:45:37;;;;;;;4.87;3.33;;;18.80;99.90;;;;;;4973706;28;20170;-86
2023/09/12 06:48:03;;;;;;;5.33;4.00;;;18.80;99.90;;;;;;4972148;28;20257;-86
2023/09/12 06:50:29;;;;;;;9.50;3.93;;;18.70;99.90;;;;;;4973374;28;20193;-85
2023/09/12 06:52:55;;;;;;;10.87;3.93;;;18.60;99.90;;;;;;4972374;28;20179;-85
2023/09/12 06:55:20;;;;;;;6.90;3.00;;;18.70;99.90;;;;;;4972834;28;20181;-85
2023/09/12 06:57:46;;;;;;;6.77;3.27;;;18.50;99.90;;;;;;4974387;28;20206;-85
2023/09/12 07:00:13;;;;;;;4.90;2.80;;;18.60;99.90;;;;;;4972569;28;20178;-85
2023/09/12 07:02:38;;;;;;;7.77;3.73;;;18.30;99.90;;;;;;4973326;28;20287;-86
2023/09/12 07:05:04;;;;;;;13.53;4.00;;;18.30;99.90;;;;;;4977478;28;20178;-86
2023/09/12 07:07:30;;;;;;;6.83;3.87;;;18.40;99.90;;;;;;4976325;28;20192;-85
2023/09/12 07:09:56;;;;;;;10.13;3.97;;;18.30;99.90;;;;;;4977247;28;20182;-85
2023/09/12 07:12:22;;;;;;;12.53;3.70;;;18.40;99.90;;;;;;4976245;28;20210;-85
2023/09/12 07:14:47;;;;;;;13.27;4.17;;;18.40;99.90;;;;;;4976691;28;20192;-85
2023/09/12 07:17:13;;;;;;;7.93;4.03;;;18.40;99.90;;;;;;4976022;28;20198;-85
2023/09/12 07:19:38;;;;;;;11.00;4.50;;;18.40;99.90;;;;;;4976465;28;20174;-85
2023/09/12 07:22:04;;;;;;;6.27;3.63;;;18.50;99.90;;;;;;4976081;28;20216;-86
2023/09/12 07:24:29;;;;;;;15.00;3.93;;;18.50;99.90;;;;;;4976082;28;20680;-85
2023/09/12 07:26:55;;;;;;;10.73;4.03;;;18.50;99.90;;;;;;4977205;28;20264;-86
2023/09/12 07:29:20;;;;;;;9.13;5.13;;;18.60;99.90;;;;;;4975467;28;20277;-85
2023/09/12 07:31:46;;;;;;;5.70;3.90;;;18.50;99.90;;;;;;4975234;28;20681;-85
2023/09/12 07:34:14;;;;;;;6.90;4.60;;;18.60;99.90;;;;;;4975179;28;20201;-86
2023/09/12 07:36:40;;;;;;;9.07;3.43;;;18.60;99.90;;;;;;4975577;28;20589;-85
2023/09/12 07:39:06;;;;;;;14.30;4.33;;;18.60;99.90;;;;;;4976785;28;20174;-85
2023/09/12 07:41:32;;;;;;;9.03;3.37;;;18.60;99.90;;;;;;4976853;28;20630;-85
2023/09/12 07:43:57;;;;;;;5.93;3.30;;;18.80;99.90;;;;;;4975566;28;20198;-85
2023/09/12 07:46:23;;;;;;;9.87;4.03;;;18.70;99.90;;;;;;4976577;28;20178;-85
2023/09/12 07:48:48;;;;;;;7.17;2.93;;;18.70;99.90;;;;;;4975711;28;20184;-85
2023/09/12 07:51:15;;;;;;;6.73;3.17;;;18.80;99.90;;;;;;4976218;28;20562;-85
2023/09/12 07:53:41;;;;;;;5.47;3.53;;;18.80;99.90;;;;;;4976804;28;20182;-85
2023/09/12 07:56:08;;;;;;;7.87;3.37;;;18.80;99.90;;;;;;4975304;28;20272;-85
2023/09/12 07:58:34;;;;;;;9.07;2.90;;;18.70;99.90;;;;;;4975444;28;20175;-85
2023/09/12 08:01:08;;;;;;;8.30;3.10;;;19.00;99.90;;;;;;4976561;28;20269;-85
2023/09/12 08:03:35;;;;;;;3.97;2.63;;;18.80;99.90;;;;;;4975022;28;20170;-85
2023/09/12 08:06:00;;;;;;;5.93;2.83;;;18.80;99.90;;;;;;4975078;28;20178;-84
2023/09/12 08:08:26;;;;;;;8.67;2.83;;;18.80;99.90;;;;;;4975783;28;20201;-84
2023/09/12 08:10:51;;;;;;;8.33;2.60;;;18.80;99.90;;;;;;4975249;28;20288;-85
2023/09/12 08:13:17;;;;;;;5.20;2.50;;;18.80;99.90;;;;;;4976030;28;20178;-84
2023/09/12 08:15:42;;;;;;;7.57;3.40;;;18.90;99.90;;;;;;4975862;28;20182;-83
2023/09/12 08:18:08;;;;;;;3.53;2.80;;;19.00;99.90;;;;;;4975643;28;20216;-84
2023/09/12 08:20:33;;;;;;;5.43;2.57;;;18.90;99.90;;;;;;4977937;28;20178;-84
2023/09/12 08:22:59;;;;;;;4.77;2.87;;;18.90;99.90;;;;;;4975837;28;20174;-84
2023/09/12 08:25:25;;;;;;;7.20;2.63;;;19.00;99.90;;;;;;4976940;28;20273;-84
2023/09/12 08:27:50;;;;;;;5.50;3.10;;;19.00;99.90;;;;;;4975071;28;20185;-84
2023/09/12 08:30:16;;;;;;;5.43;2.63;;;19.10;99.90;;;;;;4976391;28;20178;-85
2023/09/12 08:32:45;;;;;;;5.37;2.90;;;19.10;99.90;;;;;;4974812;28;20312;-85
2023/09/12 08:35:12;;;;;;;4.80;2.43;;;19.20;99.90;;;;;;4975136;28;20211;-84
2023/09/12 08:37:39;;;;;;;5.37;2.90;;;19.30;99.90;;;;;;4975192;28;20209;-84
2023/09/12 08:40:08;;;;;;;5.13;2.73;;;19.20;99.90;;;;;;4974524;28;20183;-85
2023/09/12 08:42:40;;;;;;;4.63;3.20;;;19.20;99.90;;;;;;4975803;28;20212;-85
2023/09/12 08:45:10;;;;;;;3.83;2.50;;;19.30;99.90;;;;;;4975646;28;20679;-85
2023/09/12 08:47:36;;;;;;;5.30;2.40;;;19.30;99.90;;;;;;4974561;28;20269;-85
2023/09/12 08:50:04;;;;;;;4.97;2.57;;;19.40;99.90;;;;;;4976371;28;20182;-84
2023/09/12 08:52:29;;;;;;;5.60;3.57;;;19.50;99.90;;;;;;4975139;28;20269;-84
2023/09/12 08:54:55;;;;;;;7.30;3.27;;;19.50;99.90;;;;;;4975760;28;20205;-85
2023/09/12 08:57:21;;;;;;;5.20;3.13;;;19.60;99.90;;;;;;4975205;28;20213;-85
2023/09/12 08:59:48;;;;;;;5.23;2.80;;;19.60;99.90;;;;;;4974543;28;20194;-85
2023/09/12 09:02:14;;;;;;;6.27;3.10;;;19.80;99.90;;;;;;4975452;28;20277;-85
2023/09/12 09:04:40;;;;;;;4.57;2.97;;;19.80;99.90;;;;;;4974501;28;20181;-85
2023/09/12 09:07:08;;;;;;;5.67;3.10;;;19.80;99.90;;;;;;4974001;28;20205;-85
2023/09/12 09:09:34;;;;;;;3.73;3.00;;;19.80;99.90;;;;;;4974870;28;20170;-85
2023/09/12 09:11:59;;;;;;;5.23;3.37;;;19.80;99.90;;;;;;4975571;28;20224;-85
2023/09/12 09:14:25;;;;;;;5.63;4.40;;;20.10;99.90;;;;;;4974436;28;20182;-84
2023/09/12 09:16:51;;;;;;;9.80;5.57;;;20.10;99.90;;;;;;4975099;28;20589;-85
2023/09/12 09:19:18;;;;;;;8.33;6.43;;;20.20;99.90;;;;;;4975417;28;20233;-85
2023/09/12 09:21:43;;;;;;;9.83;7.33;;;20.10;99.90;;;;;;4973940;28;20221;-85
2023/09/12 09:24:17;;;;;;;13.57;10.37;;;20.30;99.90;;;;;;4973978;28;20178;-85
2023/09/12 09:26:47;;;;;;;12.37;10.00;;;20.20;99.90;;;;;;4974416;28;20173;-85
2023/09/12 09:29:16;;;;;;;19.93;13.20;;;20.50;99.90;;;;;;4975150;28;20173;-86
2023/09/12 09:31:42;;;;;;;16.77;11.93;;;20.30;99.90;;;;;;4973531;28;20202;-85
2023/09/12 09:34:15;;;;;;;14.07;11.80;;;20.40;99.90;;;;;;4973236;28;20194;-84
2023/09/12 09:36:42;;;;;;;31.10;22.40;;;20.50;99.90;;;;;;4975030;28;20194;-85
2023/09/12 09:39:09;;;;;;;30.53;20.13;;;20.50;99.90;;;;;;4973922;28;20641;-84
2023/09/12 09:41:34;;;;;;;26.20;18.03;;;20.50;99.90;;;;;;4974931;28;20661;-85
2023/09/12 09:44:00;;;;;;;29.00;19.53;;;20.60;99.90;;;;;;4973510;28;20275;-85
2023/09/12 09:46:26;;;;;;;26.00;18.50;;;20.60;99.90;;;;;;4974333;28;20184;-85
2023/09/12 09:48:52;;;;;;;23.23;16.73;;;20.90;99.90;;;;;;4972992;28;20185;-85
2023/09/12 09:51:18;;;;;;;26.23;17.17;;;20.70;99.90;;;;;;4974466;28;20274;-84
2023/09/12 09:53:44;;;;;;;22.70;16.47;;;20.80;99.90;;;;;;4973286;28;20186;-85
2023/09/12 09:56:11;;;;;;;26.23;16.77;;;20.90;99.90;;;;;;4974362;28;20293;-85
2023/09/12 09:58:52;;;;;;;24.17;16.47;;;21.10;99.90;;;;;;4972801;28;20181;-85
2023/09/12 10:01:28;;;;;;;22.03;13.70;;;21.00;99.90;;;;;;4972935;28;20329;-85
2023/09/12 10:03:59;;;;;;;18.57;13.67;;;21.10;99.90;;;;;;4972945;28;20580;-86
2023/09/12 10:06:26;;;;;;;19.47;15.60;;;21.10;99.90;;;;;;4972657;28;20166;-85
2023/09/12 10:08:53;;;;;;;19.10;16.67;;;21.10;99.90;;;;;;4974101;28;20173;-86
2023/09/12 10:11:22;;;;;;;19.80;17.57;;;21.10;99.90;;;;;;4974207;28;20190;-85
2023/09/12 10:13:54;;;;;;;18.20;16.43;;;21.30;99.90;;;;;;4974120;28;20174;-85
2023/09/12 10:16:24;;;;;;;17.20;15.40;;;21.30;99.90;;;;;;4972892;28;20292;-85
2023/09/12 10:19:14;;;;;;;17.67;15.87;;;21.30;99.90;;;;;;4972890;28;20206;-84
2023/09/12 10:22:06;;;;;;;16.50;13.80;;;21.40;99.90;;;;;;4973639;28;20198;-85
2023/09/12 10:24:34;;;;;;;17.53;14.40;;;21.50;99.90;;;;;;4974262;28;20325;-85
2023/09/12 10:27:01;;;;;;;14.47;12.97;;;21.50;99.90;;;;;;4972697;28;20244;-85
2023/09/12 10:29:28;;;;;;;16.47;13.47;;;21.70;99.90;;;;;;4974080;28;20171;-85
2023/09/12 10:31:53;;;;;;;20.73;14.97;;;21.50;99.90;;;;;;4973946;28;20576;-86
2023/09/12 10:34:20;;;;;;;18.73;13.63;;;21.70;99.90;;;;;;4972796;28;20190;-85
2023/09/12 10:36:47;;;;;;;14.10;12.40;;;21.80;99.90;;;;;;4974263;28;20202;-85
2023/09/12 10:39:14;;;;;;;13.27;11.43;;;21.80;99.90;;;;;;4976138;28;20178;-85
2023/09/12 10:41:41;;;;;;;16.57;12.70;;;21.90;99.90;;;;;;4976678;28;20198;-87
2023/09/12 10:44:10;;;;;;;16.07;12.30;;;22.00;99.90;;;;;;4977480;28;20202;-85
2023/09/12 10:46:41;;;;;;;18.73;15.57;;;22.10;99.90;;;;;;4976263;28;20175;-85
2023/09/12 10:49:08;;;;;;;15.97;14.03;;;21.90;99.90;;;;;;4976429;28;20582;-85
2023/09/12 10:51:38;;;;;;;15.67;12.83;;;21.90;99.90;;;;;;4976210;28;20237;-85
2023/09/12 10:54:04;;;;;;;23.60;17.83;;;21.90;99.90;;;;;;4976254;28;20186;-86
2023/09/12 10:56:32;;;;;;;23.73;15.60;;;21.90;99.90;;;;;;4976561;28;20206;-86
2023/09/12 10:59:03;;;;;;;20.97;16.70;;;22.00;99.90;;;;;;4977117;28;20238;-85
2023/09/12 11:01:33;;;;;;;19.93;16.30;;;22.00;99.90;;;;;;4977683;28;20194;-86
2023/09/12 11:04:20;;;;;;;18.10;15.27;;;21.90;99.90;;;;;;4975960;28;20178;-85
2023/09/12 11:06:50;;;;;;;16.90;14.73;;;22.20;99.90;;;;;;4976107;28;20257;-85
2023/09/12 11:09:20;;;;;;;23.43;15.40;;;22.30;99.90;;;;;;4976221;28;20231;-86
2023/09/12 11:11:48;;;;;;;17.87;15.60;;;22.20;99.90;;;;;;4975895;28;20274;-85
2023/09/12 11:14:18;;;;;;;16.07;14.40;;;22.20;99.90;;;;;;4976616;28;20591;-85
2023/09/12 11:17:07;;;;;;;17.83;15.17;;;22.30;99.90;;;;;;4976281;28;20205;-86
2023/09/12 11:19:48;;;;;;;13.93;12.50;;;22.40;99.90;;;;;;4975729;28;20182;-87
2023/09/12 11:25:36;;;;;;;11.47;10.27;;;22.50;99.90;;;;;;4978447;28;20262;-85
2023/09/12 11:28:04;;;;;;;12.90;10.50;;;22.60;99.90;;;;;;4977065;28;20217;-85
2023/09/12 11:30:34;;;;;;;13.53;10.00;;;22.60;99.90;;;;;;4976667;28;20189;-85
2023/09/12 11:33:03;;;;;;;11.80;9.13;;;22.60;99.90;;;;;;4977674;28;20253;-85
2023/09/12 11:35:29;;;;;;;9.90;8.80;;;22.60;99.90;;;;;;4978039;28;20188;-86
2023/09/12 11:37:56;;;;;;;10.23;7.93;;;22.70;99.90;;;;;;4977140;28;20202;-86
2023/09/12 11:40:34;;;;;;;9.47;7.77;;;22.60;99.90;;;;;;4978356;28;20310;-86
2023/09/12 11:43:00;;;;;;;9.83;7.77;;;22.60;99.90;;;;;;4978525;28;20228;-85
2023/09/12 11:45:27;;;;;;;9.70;7.67;;;22.90;99.90;;;;;;4977260;28;20213;-85
2023/09/12 11:47:53;;;;;;;9.33;8.40;;;22.90;99.90;;;;;;4974973;28;20190;-83
2023/09/12 11:50:38;;;;;;;6.93;5.90;;;22.80;99.90;;;;;;4977959;28;20249;-84
2023/09/12 11:53:06;;;;;;;6.70;5.97;;;23.00;99.90;;;;;;4976355;28;20182;-82
2023/09/12 11:55:45;;;;;;;8.03;6.33;;;22.90;99.90;;;;;;4976296;28;20186;-83
2023/09/12 11:58:13;;;;;;;6.93;6.33;;;22.90;99.90;;;;;;4975915;28;20198;-83
2023/09/12 12:00:51;;;;;;;6.87;5.93;;;22.90;99.90;;;;;;4977207;28;20649;-82
2023/09/12 12:03:17;;;;;;;6.87;5.93;;;22.90;99.90;;;;;;4977402;28;20195;-82
2023/09/12 12:05:43;;;;;;;5.70;5.07;;;22.90;99.90;;;;;;4976874;28;20232;-82
2023/09/12 12:08:10;;;;;;;7.23;5.33;;;22.90;99.90;;;;;;4978151;28;20249;-83
2023/09/12 12:10:39;;;;;;;7.37;5.67;;;23.10;99.90;;;;;;4976732;28;20280;-83
2023/09/12 12:13:04;;;;;;;7.43;5.40;;;23.10;99.90;;;;;;4977417;28;20170;-83
2023/09/12 12:15:30;;;;;;;6.63;5.40;;;23.20;99.90;;;;;;4976300;28;20187;-82
2023/09/12 12:17:56;;;;;;;6.60;5.90;;;23.20;99.90;;;;;;4976359;28;20237;-82
2023/09/12 12:20:22;;;;;;;7.00;6.27;;;23.20;99.90;;;;;;4977732;28;20266;-83
2023/09/12 12:22:47;;;;;;;9.60;7.23;;;23.30;99.90;;;;;;4977307;28;20197;-83
2023/09/12 12:25:14;;;;;;;7.30;6.53;;;23.30;99.90;;;;;;4976174;28;20646;-83
2023/09/12 12:27:41;;;;;;;8.60;6.53;;;23.20;99.90;;;;;;4977703;28;20254;-83
2023/09/12 12:30:08;;;;;;;6.60;5.90;;;23.50;99.90;;;;;;4976494;28;20182;-82
2023/09/12 12:32:35;;;;;;;9.00;6.90;;;23.50;99.90;;;;;;4974992;28;20723;-82
2023/09/12 12:35:02;;;;;;;6.87;6.13;;;23.50;99.90;;;;;;4975153;28;20189;-83
2023/09/12 12:37:32;;;;;;;7.07;5.90;;;23.50;99.90;;;;;;4975092;28;20202;-82
2023/09/12 12:39:59;;;;;;;8.13;5.70;;;23.70;99.90;;;;;;4976858;28;20575;-83